Terminal Aerodrome Forecast
Issued by NWS Charleston, WV

Home | Current Version | Previous Version | Text Only | Print | Product List | Glossary On
Versions: 1 2 3 4 5 6 7 8 9 10 11 12 13 14 15 16 17 18 19 20 21 22
000
FTUS41 KRLX 021809 RRA
TAFCRW
TAF
KCRW 021809Z 0218/0318 23009G15KT P6SM VCTS BKN050CB
     FM022100 23008KT 6SM TSRA BKN045CB
     FM030100 VRB03KT 3SM SHRA BR VCTS OVC025CB
     FM030400 00000KT 2SM SHRA BR SCT001 OVC015
     FM030700 00000KT 1SM BR SCT001 OVC006
     FM031300 31004KT 3SM BR BKN008
     FM031500 30005KT 6SM BR BKN012
     FM031700 30007KT P6SM BKN025=

USA.gov is the U.S. government's official web portal to all federal, state and local government web resources and services.